Trois-Rivières, Quebec

18:13 EDT le 27 avril 2015 (GMT -0400)
Cap-de-la-Madeleine | | Change Station
CLOSE
Current Station
Stations météorologiques personnelles
Location: Trois-Rivières, QUéBEC
Altitude: 174 ft
Stations météo à proximité

Alt. 174 ft 46.38 °N, 72.57 °W | Updated 13 minutes ago

Overcast
Couvert
54.9 ° F
Paraît 54.9 ° F
N
6.8
Vent Variable Vent de NNE

Aujourd'hui
Haut(e) -- | Bas -- ° F
--% Risque de précip.
Hier
Haut(e) -- | Bas -- ° F
Precip. -- pouce
5:42 AM 7:53 PM
Lune gibbeuse croissante, 68% visible
Pression 29.78 pouce
Visibilité 9.0 Miles terrestres
Nuages Couvert 4800 ft
Point de rosée 42 ° F
Humidité 62%
Précipitations 0.00 pouce
Profondeur de la couche neigeuse Non disponible.
UV 0 sur 12
Pollen Non disponible.
Qualité de l'air Non disponible.
Flu Activity Non disponible.
METAR CYRQ 272200Z AUTO 02014G20KT 9SM OVC048 13/04 A2977 RMK SLP082

More Conditions Fewer Conditions

Pression 29.78 pouce
Visibilité 9.0 Miles terrestres
Nuages Couvert 4800 ft
Point de rosée 42 ° F
Humidité 62%
Précipitations 0.00 pouce
Profondeur de la couche neigeuse Non disponible.
UV 0 sur 12
Pollen Non disponible.
Qualité de l'air Non disponible.
Flu Activity Non disponible.
METAR CYRQ 272200Z AUTO 02014G20KT 9SM OVC048 13/04 A2977 RMK SLP082

More Conditions Fewer Conditions

10-Day Weather Forecast

Almanac

Astronomie

Apr. 27, 2015 Lever Coucher
Temps réel
Crépuscule civil
Crépuscule nautique
Crépuscule astronomique
Lune
Durée de lumière visible
Longueur du jour
Tomorrow will be .
, % of the Moon is Illuminated

Extrêmes aujourd'hui

Country Highs Country Lows

Community

WunderPhotos

Upload Photos

1,817,442 Photos téléchargées !

WunderBlogs® & News

Nearby

Qualité de l'air

  Qualité de l'air Indice de la qualité de l'air Polluant
Not available.

Épaisseur de neige

Station Depth Altitude

Activité sismique

Ville Distance Mag. Time & Date
Minimum magnitude displayed is 2.5.

Températures des eaux côtières

Lieu Température

Stations

Stations météo à proximité

Emplacement de la station Température Refroidissement éolien Point de rosée Humidité Vent Precip. Alt. Mise à jour Type